createdAt,value
2017-10-05T00:02:03.573Z,100044
2017-10-05T00:04:33.539Z,100027
2017-10-05T00:07:03.459Z,100030
2017-10-05T00:09:33.735Z,100050
2017-10-05T00:12:03.680Z,100046
2017-10-05T00:14:34.171Z,100043
2017-10-05T00:17:04.068Z,100039
2017-10-05T00:19:34.410Z,100044
2017-10-05T00:22:04.315Z,100037
2017-10-05T00:24:34.764Z,100040
2017-10-05T00:27:04.768Z,99992
2017-10-05T00:29:34.994Z,100012
2017-10-05T00:32:04.877Z,100024
2017-10-05T00:34:35.393Z,100014
2017-10-05T00:37:05.279Z,100010
2017-10-05T00:39:35.566Z,99998
2017-10-05T00:42:05.554Z,99978
2017-10-05T00:44:36.020Z,99993
2017-10-05T00:47:05.871Z,100001
2017-10-05T00:49:36.240Z,100010
2017-10-05T00:52:06.110Z,99996
2017-10-05T00:54:36.435Z,99987
2017-10-05T00:57:06.313Z,99973
2017-10-05T00:59:36.493Z,99963
2017-10-05T01:02:06.414Z,99965
2017-10-05T01:04:36.731Z,99970
2017-10-05T01:07:06.606Z,99962
2017-10-05T01:09:36.539Z,99961
2017-10-05T01:12:06.440Z,99962
2017-10-05T01:14:36.303Z,99954
2017-10-05T01:17:06.627Z,99949
2017-10-05T01:19:36.507Z,99947
2017-10-05T01:22:07.013Z,99930
2017-10-05T01:24:36.887Z,99917
2017-10-05T01:27:07.230Z,99930
2017-10-05T01:29:37.092Z,99930
2017-10-05T01:32:07.506Z,99921
2017-10-05T01:34:37.374Z,99912
2017-10-05T01:37:07.671Z,99909
2017-10-05T01:39:37.600Z,99891
2017-10-05T01:42:07.929Z,99887
2017-10-05T01:44:37.805Z,99887
2017-10-05T01:47:08.100Z,99889
2017-10-05T01:49:37.979Z,99897
2017-10-05T01:52:08.290Z,99880
2017-10-05T01:54:38.194Z,99881
2017-10-05T01:57:08.511Z,99867
2017-10-05T01:59:38.491Z,99859
2017-10-05T02:02:08.850Z,99858
2017-10-05T02:04:38.727Z,99842
2017-10-05T02:07:08.605Z,99835
2017-10-05T02:09:38.522Z,99839
2017-10-05T02:12:08.411Z,99837
2017-10-05T02:14:38.811Z,99825
2017-10-05T02:17:08.686Z,99826
2017-10-05T02:19:38.577Z,99813
2017-10-05T02:22:08.470Z,99799
2017-10-05T02:24:38.356Z,99823
2017-10-05T02:27:08.731Z,99807
2017-10-05T02:29:38.635Z,99822
2017-10-05T02:32:08.879Z,99803
2017-10-05T02:34:38.784Z,99802
2017-10-05T02:37:09.008Z,99797
2017-10-05T02:39:38.883Z,99807
2017-10-05T02:42:09.219Z,99786
2017-10-05T02:44:39.120Z,99775
2017-10-05T02:47:09.514Z,99764
2017-10-05T02:49:39.403Z,99767
2017-10-05T02:52:09.675Z,99767
2017-10-05T02:54:39.542Z,99755
2017-10-05T02:57:09.819Z,99751
2017-10-05T02:59:39.704Z,99746
2017-10-05T03:02:10.160Z,99739
2017-10-05T03:04:40.052Z,99744
2017-10-05T03:07:10.293Z,99740
2017-10-05T03:09:40.188Z,99729
2017-10-05T03:12:10.920Z,99727
2017-10-05T03:14:40.808Z,99728
2017-10-05T03:17:11.090Z,99713
2017-10-05T03:19:40.964Z,99705
2017-10-05T03:22:11.321Z,99694
2017-10-05T03:24:41.234Z,99704
2017-10-05T03:27:11.485Z,99694
2017-10-05T03:29:41.388Z,99692
2017-10-05T03:32:11.706Z,99683
2017-10-05T03:34:41.583Z,99657
2017-10-05T03:37:11.902Z,99651
2017-10-05T03:39:41.817Z,99642
2017-10-05T03:42:12.141Z,99637
2017-10-05T03:44:42.073Z,99640
2017-10-05T03:47:12.395Z,99626
2017-10-05T03:49:42.310Z,99617
2017-10-05T03:52:12.563Z,99613
2017-10-05T03:54:42.435Z,99610
2017-10-05T03:57:12.775Z,99606
2017-10-05T03:59:42.676Z,99606
2017-10-05T04:02:12.559Z,99610
2017-10-05T04:04:42.439Z,99605
2017-10-05T04:07:12.322Z,99602
2017-10-05T04:09:42.551Z,99601
2017-10-05T04:12:12.444Z,99593
2017-10-05T04:14:42.709Z,99588
2017-10-05T04:17:12.638Z,99584
2017-10-05T04:19:42.542Z,99579
2017-10-05T04:22:12.454Z,99572
2017-10-05T04:24:42.451Z,99574
2017-10-05T04:27:12.763Z,99564
2017-10-05T04:29:42.615Z,99561
2017-10-05T04:32:12.579Z,99549
2017-10-05T04:34:42.474Z,99546
2017-10-05T04:37:12.367Z,99532
2017-10-05T04:39:42.623Z,99518
2017-10-05T04:42:13.266Z,99508
2017-10-05T04:44:43.705Z,99499
2017-10-05T04:47:13.737Z,99496
2017-10-05T04:49:44.146Z,99491
2017-10-05T04:52:14.027Z,99498
2017-10-05T04:54:44.483Z,99472
2017-10-05T04:57:14.397Z,99464
2017-10-05T04:59:44.698Z,99461
2017-10-05T05:02:14.598Z,99450
2017-10-05T05:04:44.910Z,99447
2017-10-05T05:07:14.860Z,99441
2017-10-05T05:09:45.206Z,99443
2017-10-05T05:12:15.130Z,99425
2017-10-05T05:14:45.421Z,99430
2017-10-05T05:17:15.370Z,99409
2017-10-05T05:19:45.654Z,99409
2017-10-05T05:22:15.547Z,99386
2017-10-05T05:24:46.005Z,99400
2017-10-05T05:27:15.947Z,99391
2017-10-05T05:29:46.212Z,99385
2017-10-05T05:32:16.117Z,99379
2017-10-05T05:34:46.347Z,99373
2017-10-05T05:37:16.244Z,99365
2017-10-05T05:39:46.527Z,99368
2017-10-05T05:42:16.504Z,99359
2017-10-05T05:44:46.846Z,99358
2017-10-05T05:47:16.719Z,99352
2017-10-05T05:49:48.785Z,99246
2017-10-05T05:52:18.696Z,99318
2017-10-05T05:54:48.979Z,99313
2017-10-05T05:57:18.968Z,99304
2017-10-05T05:59:49.307Z,99307
2017-10-05T06:02:19.238Z,99287
2017-10-05T06:04:49.555Z,99278
2017-10-05T06:07:19.450Z,99273
2017-10-05T06:09:49.737Z,99271
2017-10-05T06:12:19.619Z,99254
2017-10-05T06:14:49.551Z,99244
2017-10-05T06:17:20.196Z,99230
2017-10-05T06:19:50.868Z,99228
2017-10-05T06:22:21.268Z,99210
2017-10-05T06:24:51.145Z,99192
2017-10-05T06:27:21.532Z,99174
2017-10-05T06:29:51.410Z,99170
2017-10-05T06:32:21.748Z,99173
2017-10-05T06:34:51.614Z,99167
2017-10-05T06:37:21.987Z,99164
2017-10-05T06:39:51.863Z,99162
2017-10-05T06:42:22.142Z,99146
2017-10-05T06:44:52.021Z,99122
2017-10-05T06:47:22.346Z,99120
2017-10-05T06:49:52.527Z,99116
2017-10-05T06:52:22.425Z,99111
2017-10-05T06:54:52.285Z,99111
2017-10-05T06:57:22.636Z,99098
2017-10-05T06:59:52.534Z,99084
2017-10-05T07:02:22.852Z,99072
2017-10-05T07:04:52.731Z,99068
2017-10-05T07:07:22.646Z,99057
2017-10-05T07:09:52.532Z,99051
2017-10-05T07:12:22.442Z,99042
2017-10-05T07:14:52.869Z,99028
2017-10-05T07:17:22.758Z,99027
2017-10-05T07:19:52.643Z,99020
2017-10-05T07:22:22.522Z,99003
2017-10-05T07:24:52.385Z,98993
2017-10-05T07:27:22.643Z,98973
2017-10-05T07:29:52.534Z,98969
2017-10-05T07:32:22.837Z,98954
2017-10-05T07:34:52.701Z,98930
2017-10-05T07:37:23.245Z,98932
2017-10-05T07:39:53.170Z,98922
2017-10-05T07:42:23.422Z,98913
2017-10-05T07:44:54.203Z,98894
2017-10-05T07:47:24.470Z,98893
2017-10-05T07:49:54.365Z,98870
2017-10-05T07:52:24.744Z,98873
2017-10-05T07:54:54.701Z,98851
2017-10-05T07:57:24.636Z,98849
2017-10-05T07:59:54.526Z,98841
2017-10-05T08:02:24.430Z,98826
2017-10-05T08:04:54.821Z,98807
2017-10-05T08:07:24.858Z,98799
2017-10-05T08:09:55.286Z,98786
2017-10-05T08:12:25.222Z,98777
2017-10-05T08:14:55.597Z,98767
2017-10-05T08:17:25.574Z,98756
2017-10-05T08:19:56.041Z,98740
2017-10-05T08:22:25.985Z,98732
2017-10-05T08:24:56.281Z,98711
2017-10-05T08:27:26.183Z,98695
2017-10-05T08:29:56.522Z,98680
2017-10-05T08:32:26.413Z,98633
2017-10-05T08:34:56.845Z,98661
2017-10-05T08:37:26.779Z,98657
2017-10-05T08:39:57.001Z,98640
2017-10-05T08:42:26.971Z,98640
2017-10-05T08:44:57.268Z,98617
2017-10-05T08:47:27.338Z,98617
2017-10-05T08:49:57.861Z,98589
2017-10-05T08:52:27.817Z,98586
2017-10-05T08:54:58.079Z,98576
2017-10-05T08:57:27.956Z,98561
2017-10-05T08:59:58.328Z,98560
2017-10-05T09:02:28.277Z,98542
2017-10-05T09:04:58.670Z,98524
2017-10-05T09:07:28.577Z,98526
2017-10-05T09:09:58.881Z,98507
2017-10-05T09:12:28.879Z,98503
2017-10-05T09:14:59.940Z,98503
2017-10-05T09:17:29.867Z,98486
2017-10-05T09:20:00.123Z,98481
2017-10-05T09:22:29.995Z,98464
2017-10-05T09:25:00.209Z,98455
2017-10-05T09:27:30.102Z,98454
2017-10-05T09:30:00.423Z,98450
2017-10-05T09:32:30.353Z,98427
2017-10-05T09:35:00.590Z,98426
2017-10-05T09:37:30.596Z,98426
2017-10-05T09:40:00.916Z,98414
2017-10-05T09:42:30.889Z,98391
2017-10-05T09:45:01.203Z,98385
2017-10-05T09:47:31.090Z,98370
2017-10-05T09:50:01.443Z,98352
2017-10-05T09:52:31.403Z,98302
2017-10-05T09:55:01.776Z,98340
2017-10-05T09:57:31.664Z,98338
2017-10-05T10:00:01.670Z,98312
2017-10-05T10:02:31.582Z,98318
2017-10-05T10:05:01.540Z,98290
2017-10-05T10:07:31.954Z,98280
2017-10-05T10:10:01.854Z,98288
2017-10-05T10:12:32.262Z,98278
2017-10-05T10:15:02.124Z,98272
2017-10-05T10:17:32.722Z,98254
2017-10-05T10:20:02.719Z,98255
2017-10-05T10:22:32.593Z,98237
2017-10-05T10:25:02.477Z,98245
2017-10-05T10:27:32.355Z,98239
2017-10-05T10:30:02.710Z,98234
2017-10-05T10:32:32.647Z,98225
2017-10-05T10:35:03.239Z,98209
2017-10-05T10:37:33.138Z,98208
2017-10-05T10:40:03.470Z,98194
2017-10-05T10:42:33.408Z,98166
2017-10-05T10:45:03.729Z,98157
2017-10-05T10:47:33.682Z,98151
2017-10-05T10:50:03.952Z,98145
2017-10-05T10:52:33.917Z,98133
2017-10-05T10:55:04.147Z,98103
2017-10-05T10:57:34.053Z,98100
2017-10-05T11:00:04.424Z,98109
2017-10-05T11:02:34.325Z,98133
2017-10-05T11:05:04.547Z,98112
2017-10-05T11:07:34.519Z,98094
2017-10-05T11:10:04.860Z,98083
2017-10-05T11:12:34.738Z,98096
2017-10-05T11:15:06.038Z,98091
2017-10-05T11:17:36.026Z,98086
2017-10-05T11:20:06.278Z,98075
2017-10-05T11:22:36.171Z,98100
2017-10-05T11:25:06.634Z,98084
2017-10-05T11:27:36.486Z,98078
2017-10-05T11:30:06.723Z,98091
2017-10-05T11:32:36.631Z,98155
2017-10-05T11:35:06.524Z,98204
2017-10-05T11:37:36.408Z,98261
2017-10-05T11:40:06.292Z,98300
2017-10-05T11:42:36.543Z,98368
2017-10-05T11:45:06.409Z,98379
2017-10-05T11:47:36.667Z,98482
2017-10-05T11:50:07.104Z,98559
2017-10-05T11:52:37.415Z,98549
2017-10-05T11:55:07.289Z,98594
2017-10-05T11:57:37.560Z,98635
2017-10-05T12:00:07.421Z,98684
2017-10-05T12:02:37.794Z,98713
2017-10-05T12:05:08.048Z,98747
2017-10-05T12:07:38.422Z,98782
2017-10-05T12:10:09.187Z,98819
2017-10-05T12:12:39.396Z,98894
2017-10-05T12:15:09.280Z,98875
2017-10-05T12:17:39.539Z,98961
2017-10-05T12:20:09.399Z,98932
2017-10-05T12:22:39.660Z,98977
2017-10-05T12:25:09.540Z,98975
2017-10-05T12:27:39.899Z,98989
2017-10-05T12:30:09.759Z,99028
2017-10-05T12:32:39.983Z,99025
2017-10-05T12:35:09.983Z,99066
2017-10-05T12:37:39.860Z,99088
2017-10-05T12:40:10.047Z,99097
2017-10-05T12:42:39.919Z,99114
2017-10-05T12:45:10.130Z,99139
2017-10-05T12:47:42.358Z,99155
2017-10-05T12:50:12.818Z,99146
2017-10-05T12:52:42.703Z,99164
2017-10-05T12:55:12.619Z,99165
2017-10-05T12:57:42.477Z,99194
2017-10-05T13:00:12.330Z,99219
2017-10-05T13:02:42.577Z,99235
2017-10-05T13:05:12.654Z,99243
2017-10-05T13:07:42.922Z,99254
2017-10-05T13:10:12.869Z,99275
2017-10-05T13:12:43.247Z,99283
2017-10-05T13:15:13.226Z,99325
2017-10-05T13:17:43.476Z,99295
2017-10-05T13:20:13.346Z,99331
2017-10-05T13:22:43.636Z,99321
2017-10-05T13:25:13.609Z,99322
2017-10-05T13:27:44.032Z,99317
2017-10-05T13:30:13.928Z,99334
2017-10-05T13:32:44.188Z,99342
2017-10-05T13:35:14.135Z,99359
2017-10-05T13:37:44.479Z,99397
2017-10-05T13:40:14.430Z,99383
2017-10-05T13:42:44.747Z,99386
2017-10-05T13:45:14.850Z,99379
2017-10-05T13:47:45.140Z,99405
2017-10-05T13:50:15.261Z,99411
2017-10-05T13:52:45.615Z,99426
2017-10-05T13:55:15.699Z,99423
2017-10-05T13:57:46.337Z,99424
2017-10-05T14:00:16.235Z,99428
2017-10-05T14:02:46.535Z,99432
2017-10-05T14:05:16.430Z,99442
2017-10-05T14:07:46.714Z,99450
2017-10-05T14:10:16.694Z,99450
2017-10-05T14:12:46.613Z,99453
2017-10-05T14:15:16.634Z,99456
2017-10-05T14:17:46.494Z,99460
2017-10-05T14:20:16.778Z,99463
2017-10-05T14:22:46.810Z,99457
2017-10-05T14:25:17.390Z,99455
2017-10-05T14:27:47.284Z,99463
2017-10-05T14:30:18.578Z,99455
2017-10-05T14:32:48.635Z,99466
2017-10-05T14:35:19.116Z,99469
2017-10-05T14:37:49.038Z,99478
2017-10-05T14:40:19.440Z,99483
2017-10-05T14:42:49.334Z,99488
2017-10-05T14:45:19.643Z,99494
2017-10-05T14:47:49.523Z,99488
2017-10-05T14:50:19.886Z,99509
2017-10-05T14:52:49.797Z,99513
2017-10-05T14:55:20.979Z,99516
2017-10-05T14:57:50.909Z,99527
2017-10-05T15:00:21.164Z,99533
2017-10-05T15:02:51.125Z,99552
2017-10-05T15:05:21.462Z,99536
2017-10-05T15:07:51.346Z,99547
2017-10-05T15:10:21.641Z,99545
2017-10-05T15:12:51.520Z,99555
2017-10-05T15:15:21.810Z,99562
2017-10-05T15:17:51.691Z,99570
2017-10-05T15:20:21.558Z,99548
2017-10-05T15:22:52.397Z,99564
2017-10-05T15:25:22.286Z,99578
2017-10-05T15:27:52.775Z,99585
2017-10-05T15:30:23.341Z,99604
2017-10-05T15:32:53.805Z,99600
2017-10-05T15:35:23.658Z,99611
2017-10-05T15:37:53.529Z,99616
2017-10-05T15:40:23.424Z,99616
2017-10-05T15:42:53.368Z,99603
2017-10-05T15:45:23.643Z,99607
2017-10-05T15:47:53.499Z,99625
2017-10-05T15:50:23.971Z,99628
2017-10-05T15:52:53.858Z,99623
2017-10-05T15:55:25.409Z,99626
2017-10-05T15:57:55.378Z,99640
2017-10-05T16:00:25.718Z,99632
2017-10-05T16:02:55.672Z,99630
2017-10-05T16:05:25.982Z,99631
2017-10-05T16:07:56.132Z,99635
2017-10-05T16:10:26.636Z,99633
2017-10-05T16:12:56.519Z,99648
2017-10-05T16:15:26.974Z,99646
2017-10-05T16:17:56.858Z,99647
2017-10-05T16:20:27.118Z,99652
2017-10-05T16:22:57.361Z,99648
2017-10-05T16:25:27.717Z,99665
2017-10-05T16:27:57.598Z,99661
2017-10-05T16:30:27.490Z,99662
2017-10-05T16:32:57.375Z,99666
2017-10-05T16:35:27.352Z,99668
2017-10-05T16:37:58.032Z,99509
2017-10-05T16:40:27.934Z,99682
2017-10-05T16:43:00.675Z,99689
2017-10-05T16:45:30.839Z,99607
2017-10-05T16:48:01.147Z,99700
2017-10-05T16:50:31.318Z,99708
2017-10-05T16:53:01.989Z,99704
2017-10-05T16:55:31.872Z,99716
2017-10-05T16:58:02.205Z,99729
2017-10-05T17:00:32.145Z,99718
2017-10-05T17:03:02.427Z,99723
2017-10-05T17:05:32.285Z,99726
2017-10-05T17:08:02.653Z,99727
2017-10-05T17:10:32.610Z,99745
2017-10-05T17:13:03.053Z,99755
2017-10-05T17:15:32.995Z,99752
2017-10-05T17:18:03.376Z,99753
2017-10-05T17:20:33.295Z,99772
2017-10-05T17:23:03.522Z,99762
2017-10-05T17:25:33.418Z,99775
2017-10-05T17:28:03.779Z,99763
2017-10-05T17:30:33.632Z,99777
2017-10-05T17:33:03.542Z,99788
2017-10-05T17:35:33.441Z,99786
2017-10-05T17:38:03.351Z,99784
2017-10-05T17:40:33.594Z,99791
2017-10-05T17:43:03.459Z,99789
2017-10-05T17:45:33.678Z,99789
2017-10-05T17:48:03.583Z,99795
2017-10-05T17:50:33.456Z,99790
2017-10-05T17:53:03.460Z,99793
2017-10-05T17:55:33.382Z,99794
2017-10-05T17:58:03.647Z,99800
2017-10-05T18:00:33.559Z,99784
2017-10-05T18:03:03.770Z,99785
2017-10-05T18:05:33.653Z,99788
2017-10-05T18:08:03.570Z,99798
2017-10-05T18:10:33.626Z,99796
2017-10-05T18:13:03.555Z,99800
2017-10-05T18:15:33.780Z,99817
2017-10-05T18:18:03.669Z,99829
2017-10-05T18:20:34.126Z,99823
2017-10-05T18:23:05.217Z,99830
2017-10-05T18:25:35.696Z,99841
2017-10-05T18:28:05.598Z,99830
2017-10-05T18:30:36.534Z,99834
2017-10-05T18:33:06.564Z,99834
2017-10-05T18:35:36.994Z,99823
2017-10-05T18:38:06.926Z,99821
2017-10-05T18:40:37.159Z,99819
2017-10-05T18:43:07.035Z,99831
2017-10-05T18:45:37.295Z,99747
2017-10-05T18:48:07.208Z,99830
2017-10-05T18:50:37.487Z,99836
2017-10-05T18:53:07.369Z,99841
2017-10-05T18:55:37.700Z,99847
2017-10-05T18:58:07.599Z,99849
2017-10-05T19:00:37.860Z,99856
2017-10-05T19:03:07.796Z,99856
2017-10-05T19:05:38.067Z,99862
2017-10-05T19:08:07.970Z,99850
2017-10-05T19:10:38.241Z,99851
2017-10-05T19:13:08.139Z,99848
2017-10-05T19:15:38.479Z,99861
2017-10-05T19:18:08.389Z,99862
2017-10-05T19:20:38.703Z,99851
2017-10-05T19:23:08.612Z,99850
2017-10-05T19:25:38.929Z,99845
2017-10-05T19:28:08.824Z,99848
2017-10-05T19:30:39.081Z,99789
2017-10-05T19:33:09.019Z,99863
2017-10-05T19:35:39.300Z,99865
2017-10-05T19:38:09.208Z,99861
2017-10-05T19:40:39.470Z,99866
2017-10-05T19:43:09.339Z,99863
2017-10-05T19:45:39.673Z,99873
2017-10-05T19:48:09.566Z,99896
2017-10-05T19:50:39.808Z,99885
2017-10-05T19:53:09.698Z,99884
2017-10-05T19:55:39.575Z,99879
2017-10-05T19:58:09.481Z,99876
2017-10-05T20:00:39.388Z,99872
2017-10-05T20:03:09.629Z,99891
2017-10-05T20:05:39.482Z,99893
2017-10-05T20:08:09.897Z,99899
2017-10-05T20:10:39.819Z,99751
2017-10-05T20:13:10.031Z,99899
2017-10-05T20:15:40.727Z,99889
2017-10-05T20:18:16.597Z,99890
2017-10-05T20:24:03.648Z,99896
2017-10-05T20:26:34.131Z,99896
2017-10-05T20:29:20.211Z,99885
2017-10-05T20:31:50.699Z,99883
2017-10-05T20:34:20.950Z,99894
2017-10-05T20:36:50.904Z,99884
2017-10-05T20:39:21.130Z,99891
2017-10-05T20:41:51.959Z,99892
2017-10-05T20:44:22.321Z,99889
2017-10-05T20:46:52.224Z,99885
2017-10-05T20:49:22.440Z,99892
2017-10-05T20:51:53.047Z,99885
2017-10-05T20:54:23.424Z,99887
2017-10-05T20:56:53.330Z,99898
2017-10-05T20:59:23.544Z,99884
2017-10-05T21:01:53.429Z,99896
2017-10-05T21:04:23.680Z,99902
2017-10-05T21:06:53.557Z,99899
2017-10-05T21:09:24.543Z,99900
2017-10-05T21:11:54.445Z,99897
2017-10-05T21:14:24.653Z,99904
2017-10-05T21:16:54.543Z,99910
2017-10-05T21:19:24.808Z,99906
2017-10-05T21:21:55.432Z,99891
2017-10-05T21:24:25.775Z,99898
2017-10-05T21:26:55.787Z,99900
2017-10-05T21:29:26.937Z,99884
2017-10-05T21:31:56.862Z,99894
2017-10-05T21:34:27.074Z,99889
2017-10-05T21:36:57.089Z,99880
2017-10-05T21:39:27.406Z,99886
2017-10-05T21:41:57.310Z,99888
2017-10-05T21:44:27.643Z,99902
2017-10-05T21:46:57.520Z,99897
2017-10-05T21:49:27.735Z,99893
2017-10-05T21:51:57.600Z,99905
2017-10-05T21:54:27.513Z,99910
2017-10-05T21:56:57.380Z,99932
2017-10-05T21:59:27.258Z,99925
2017-10-05T22:01:57.549Z,99922
2017-10-05T22:04:27.466Z,99912
2017-10-05T22:06:57.698Z,99922
2017-10-05T22:13:29.950Z,99908
2017-10-05T22:15:59.878Z,99907
2017-10-05T22:18:30.084Z,99904
2017-10-05T22:20:59.938Z,99906
2017-10-05T22:23:30.334Z,99908
2017-10-05T22:26:00.182Z,99896
2017-10-05T22:28:30.425Z,99889
2017-10-05T22:31:00.299Z,99886
2017-10-05T22:33:30.595Z,99885
2017-10-05T22:36:00.499Z,99901
2017-10-05T22:38:30.843Z,99896
2017-10-05T22:41:00.790Z,99927
2017-10-05T22:43:31.510Z,99944
2017-10-05T22:46:01.440Z,99942
2017-10-05T22:48:31.706Z,99941
2017-10-05T22:51:01.612Z,99962
2017-10-05T22:53:31.578Z,99918
2017-10-05T22:56:01.451Z,99904
2017-10-05T22:58:31.323Z,99906
2017-10-05T23:01:01.599Z,99916
2017-10-05T23:03:31.526Z,99917
2017-10-05T23:06:01.788Z,99911
2017-10-05T23:08:31.651Z,99908
2017-10-05T23:11:01.545Z,99908
2017-10-05T23:13:31.612Z,99916
2017-10-05T23:16:01.490Z,99919
2017-10-05T23:18:31.744Z,99929
2017-10-05T23:21:01.736Z,99920
2017-10-05T23:23:32.177Z,99923
2017-10-05T23:26:02.137Z,99914
2017-10-05T23:28:32.390Z,99912
2017-10-05T23:31:02.302Z,99911
2017-10-05T23:33:33.496Z,99911
2017-10-05T23:36:03.396Z,99909
2017-10-05T23:38:33.691Z,99908
2017-10-05T23:41:03.558Z,99911
2017-10-05T23:43:34.126Z,99900
2017-10-05T23:46:03.999Z,99922
2017-10-05T23:48:34.278Z,99928
2017-10-05T23:51:04.199Z,99922
2017-10-05T23:53:34.448Z,99925
2017-10-05T23:56:04.343Z,99914
2017-10-05T23:58:34.645Z,99910
